Time;durP1;ratioP1;P1;durP2;ratioP2;P2;SDS_P1;SDS_P2;PMS_P1;PMS_P2;Temp;Humidity;BMP_temperature;BMP_pressure;BME280_temperature;BME280_humidity;BME280_pressure;Samples;Min_cycle;Max_cycle;Signal;HPM_P1;HPM_P2
2021/11/04 00:00:33;;;;;;;2.38;1.08;;;6.80;92.50;;;;;;6348433;22;20019;-79
2021/11/04 00:02:59;;;;;;;2.65;1.20;;;6.90;92.40;;;;;;6310833;22;20006;-79
2021/11/04 00:05:26;;;;;;;3.20;1.40;;;6.90;92.40;;;;;;6309802;22;20034;-79
2021/11/04 00:07:53;;;;;;;2.55;1.15;;;6.90;92.40;;;;;;6334460;22;20002;-79
2021/11/04 00:10:20;;;;;;;2.15;1.17;;;6.90;92.40;;;;;;6314455;22;20006;-79
2021/11/04 00:12:47;;;;;;;4.07;1.52;;;7.00;92.40;;;;;;6337578;22;20011;-79
2021/11/04 00:15:13;;;;;;;3.40;1.27;;;6.90;92.40;;;;;;6368957;22;20008;-79
2021/11/04 00:17:39;;;;;;;3.20;1.30;;;7.00;92.40;;;;;;6340540;22;20384;-79
2021/11/04 00:20:06;;;;;;;2.22;0.90;;;7.00;92.40;;;;;;6340950;22;20006;-79
2021/11/04 00:22:32;;;;;;;4.68;1.48;;;7.00;92.40;;;;;;6369305;22;20010;-79
2021/11/04 00:24:58;;;;;;;3.97;1.48;;;7.00;92.40;;;;;;6337529;22;20010;-79
2021/11/04 00:27:23;;;;;;;3.95;1.42;;;7.00;92.40;;;;;;6369018;22;20026;-80
2021/11/04 00:29:49;;;;;;;2.70;1.25;;;7.00;92.40;;;;;;6340830;22;20440;-79
2021/11/04 00:32:15;;;;;;;2.05;1.02;;;6.90;92.40;;;;;;6341368;22;20014;-79
2021/11/04 00:34:40;;;;;;;2.38;1.00;;;7.00;92.40;;;;;;6314672;22;20030;-80
2021/11/04 00:37:06;;;;;;;2.50;1.13;;;6.90;92.40;;;;;;6340972;22;20002;-80
2021/11/04 00:39:32;;;;;;;3.00;1.30;;;7.00;92.40;;;;;;6303320;22;20014;-79
2021/11/04 00:41:58;;;;;;;4.75;1.23;;;6.90;92.40;;;;;;6309987;22;20095;-79
2021/11/04 00:44:23;;;;;;;2.88;1.10;;;6.90;92.40;;;;;;6282980;22;19999;-79
2021/11/04 00:46:50;;;;;;;2.53;1.08;;;6.90;92.40;;;;;;6309445;22;20098;-79
2021/11/04 00:49:15;;;;;;;2.53;1.30;;;6.90;92.40;;;;;;6283847;22;20010;-79
2021/11/04 00:51:41;;;;;;;4.32;1.55;;;6.90;92.50;;;;;;6288344;22;20006;-79
2021/11/04 00:54:07;;;;;;;2.08;1.10;;;6.90;92.50;;;;;;6340982;22;20010;-79
2021/11/04 00:56:33;;;;;;;3.67;1.65;;;6.90;92.50;;;;;;6341415;22;20003;-79
2021/11/04 00:58:58;;;;;;;5.40;1.35;;;6.90;92.50;;;;;;6309521;22;20003;-79
2021/11/04 01:01:24;;;;;;;3.92;1.90;;;6.80;92.40;;;;;;6346637;22;20346;-80
2021/11/04 01:03:51;;;;;;;14.13;2.75;;;6.70;92.50;;;;;;6310506;22;20018;-79
2021/11/04 01:06:20;;;;;;;5.68;2.25;;;6.80;92.50;;;;;;6309264;22;20014;-79
2021/11/04 01:08:46;;;;;;;4.18;1.80;;;6.70;92.50;;;;;;6365579;22;20009;-79
2021/11/04 01:11:12;;;;;;;3.50;1.50;;;6.60;92.50;;;;;;6340672;22;20090;-79
2021/11/04 01:13:39;;;;;;;3.33;1.58;;;6.60;92.50;;;;;;6340454;22;20434;-79
2021/11/04 01:16:06;;;;;;;3.08;1.35;;;6.60;92.50;;;;;;6289032;22;20007;-79
2021/11/04 01:18:32;;;;;;;2.78;1.30;;;6.60;92.50;;;;;;6338181;22;20484;-80
2021/11/04 01:20:58;;;;;;;2.65;1.42;;;6.70;92.60;;;;;;6283651;22;20011;-80
2021/11/04 01:23:23;;;;;;;7.63;2.35;;;6.70;92.60;;;;;;6347420;22;20430;-80
2021/11/04 01:25:50;;;;;;;3.13;1.67;;;6.60;92.50;;;;;;6323762;22;20030;-79
2021/11/04 01:28:17;;;;;;;3.97;1.70;;;6.60;92.50;;;;;;6368529;22;20003;-79
2021/11/04 01:30:43;;;;;;;6.30;1.95;;;6.60;92.60;;;;;;6353820;22;20018;-79
2021/11/04 01:33:09;;;;;;;4.15;1.70;;;6.60;92.60;;;;;;6366829;22;20021;-79
2021/11/04 01:35:36;;;;;;;4.20;1.95;;;6.60;92.50;;;;;;6303071;22;20006;-79
2021/11/04 01:38:04;;;;;;;4.03;1.58;;;6.60;92.50;;;;;;6310941;22;20006;-79
2021/11/04 01:40:31;;;;;;;3.38;1.77;;;6.60;92.60;;;;;;6340763;22;20006;-79
2021/11/04 01:42:58;;;;;;;2.13;1.30;;;6.60;92.50;;;;;;6314742;22;20097;-79
2021/11/04 01:45:24;;;;;;;3.05;1.63;;;6.60;92.60;;;;;;6340559;22;20465;-79
2021/11/04 01:47:51;;;;;;;6.03;2.05;;;6.50;92.60;;;;;;6369124;22;20006;-79
2021/11/04 01:50:22;;;;;;;2.83;1.38;;;6.60;92.60;;;;;;6291720;22;20446;-79
2021/11/04 01:52:49;;;;;;;4.70;2.00;;;6.70;92.60;;;;;;6368178;22;20030;-79
2021/11/04 01:55:19;;;;;;;3.08;1.67;;;6.60;92.60;;;;;;6368951;22;20392;-79
2021/11/04 01:57:45;;;;;;;5.22;2.20;;;6.70;92.60;;;;;;6340933;22;20011;-79
2021/11/04 02:00:13;;;;;;;5.50;1.92;;;6.60;92.50;;;;;;6341276;22;20100;-79
2021/11/04 02:02:45;;;;;;;2.55;1.52;;;6.60;92.50;;;;;;6313733;22;20025;-79
2021/11/04 02:05:18;;;;;;;2.72;1.40;;;6.60;92.60;;;;;;6340786;22;20010;-79
2021/11/04 02:08:05;;;;;;;3.42;1.52;;;6.60;92.60;;;;;;6315211;22;20014;-79
2021/11/04 02:10:36;;;;;;;3.85;1.75;;;6.60;92.60;;;;;;6368189;22;20019;-79
2021/11/04 02:13:09;;;;;;;2.43;1.37;;;6.60;92.60;;;;;;6347811;22;20022;-79
2021/11/04 02:15:42;;;;;;;2.50;1.38;;;6.60;92.60;;;;;;6349947;22;20002;-79
2021/11/04 02:18:10;;;;;;;3.25;1.52;;;6.60;92.60;;;;;;6311772;22;20033;-79
2021/11/04 02:21:01;;;;;;;2.85;1.48;;;6.60;92.60;;;;;;6338525;22;20003;-79
2021/11/04 02:23:40;;;;;;;2.63;1.33;;;6.70;92.60;;;;;;6320059;22;20014;-79
2021/11/04 02:26:06;;;;;;;2.13;1.20;;;6.70;92.60;;;;;;6310766;22;20106;-79
2021/11/04 02:28:34;;;;;;;4.35;1.95;;;6.60;92.60;;;;;;6348817;22;20011;-79
2021/11/04 02:31:02;;;;;;;4.30;1.63;;;6.70;92.60;;;;;;6349947;22;20014;-79
2021/11/04 02:33:29;;;;;;;4.45;2.10;;;6.70;92.60;;;;;;6316513;22;20017;-80
2021/11/04 02:35:56;;;;;;;3.05;1.65;;;6.60;92.50;;;;;;6311055;22;20002;-80
2021/11/04 02:38:23;;;;;;;3.85;1.73;;;6.70;92.60;;;;;;6349573;22;20007;-80
2021/11/04 02:40:53;;;;;;;3.53;1.50;;;6.60;92.60;;;;;;6316972;22;20645;-80
2021/11/04 02:43:19;;;;;;;2.83;1.40;;;6.60;92.60;;;;;;6311313;22;20011;-80
2021/11/04 02:45:46;;;;;;;3.97;1.50;;;6.60;92.60;;;;;;6368244;22;20022;-81
2021/11/04 02:48:16;;;;;;;4.20;1.80;;;6.70;92.60;;;;;;6342171;22;20021;-80
2021/11/04 02:50:46;;;;;;;3.67;1.50;;;6.70;92.60;;;;;;6312877;22;20426;-80
2021/11/04 02:53:14;;;;;;;3.17;1.40;;;6.70;92.60;;;;;;6310917;22;20342;-80
2021/11/04 02:55:41;;;;;;;3.17;1.40;;;6.70;92.60;;;;;;6313523;22;20064;-80
2021/11/04 02:58:09;;;;;;;3.67;1.75;;;6.70;92.60;;;;;;6349051;22;20076;-80
2021/11/04 03:00:37;;;;;;;4.22;1.70;;;6.80;92.60;;;;;;6349515;22;20427;-80
2021/11/04 03:03:03;;;;;;;4.75;1.85;;;6.70;92.50;;;;;;6314428;22;20007;-80
2021/11/04 03:05:30;;;;;;;2.72;1.45;;;6.80;92.60;;;;;;6341608;22;20067;-80
2021/11/04 03:07:55;;;;;;;3.00;1.50;;;6.70;92.50;;;;;;6315274;22;20017;-80
2021/11/04 03:10:22;;;;;;;3.03;1.50;;;6.70;92.50;;;;;;6361633;22;20006;-80
2021/11/04 03:12:48;;;;;;;3.63;1.58;;;6.80;92.50;;;;;;6347035;22;20010;-80
2021/11/04 03:15:18;;;;;;;3.65;1.58;;;6.80;92.50;;;;;;6309949;22;20010;-80
2021/11/04 03:17:47;;;;;;;3.47;1.60;;;6.90;92.60;;;;;;6284228;22;20085;-79
2021/11/04 03:20:14;;;;;;;3.60;1.52;;;6.90;92.50;;;;;;6369837;22;20006;-80
2021/11/04 03:22:42;;;;;;;6.05;2.35;;;6.80;92.50;;;;;;6349466;22;20470;-80
2021/11/04 03:25:09;;;;;;;5.15;2.50;;;6.80;92.80;;;;;;6285787;22;20057;-80
2021/11/04 03:27:38;;;;;;;5.25;2.22;;;6.80;92.50;;;;;;6347256;22;20060;-80
2021/11/04 03:30:07;;;;;;;3.92;2.00;;;6.80;92.60;;;;;;6286303;22;20015;-80
2021/11/04 03:32:33;;;;;;;4.72;2.20;;;6.80;92.60;;;;;;6310606;22;20029;-79
2021/11/04 03:35:00;;;;;;;5.85;2.03;;;6.70;92.60;;;;;;6368871;22;20002;-80
2021/11/04 03:37:27;;;;;;;5.30;2.20;;;6.70;92.60;;;;;;6369549;22;20360;-79
2021/11/04 03:39:54;;;;;;;6.47;2.20;;;6.70;92.90;;;;;;6315285;22;20085;-80
2021/11/04 03:42:21;;;;;;;4.05;1.70;;;6.70;92.60;;;;;;6315154;22;20010;-79
2021/11/04 03:44:48;;;;;;;4.28;1.83;;;6.70;92.60;;;;;;6344232;22;20335;-79
2021/11/04 03:47:16;;;;;;;4.43;2.10;;;6.70;92.70;;;;;;6337383;22;20060;-80
2021/11/04 03:49:47;;;;;;;4.93;2.22;;;6.70;92.60;;;;;;6341609;22;20013;-80
2021/11/04 03:52:13;;;;;;;4.78;1.98;;;6.60;92.60;;;;;;6340756;22;20010;-80
2021/11/04 03:54:39;;;;;;;5.60;2.28;;;6.60;92.60;;;;;;6315048;22;20011;-80
2021/11/04 03:57:05;;;;;;;4.38;1.98;;;6.70;92.70;;;;;;6284219;22;20085;-80
2021/11/04 03:59:31;;;;;;;4.30;2.13;;;6.70;92.70;;;;;;6347258;22;20027;-80
2021/11/04 04:01:57;;;;;;;5.68;2.00;;;6.60;92.70;;;;;;6284646;22;20500;-80
2021/11/04 04:04:23;;;;;;;4.55;1.92;;;6.70;92.70;;;;;;6296921;22;20288;-79
2021/11/04 04:06:52;;;;;;;3.40;1.70;;;6.70;92.70;;;;;;6341471;22;20342;-80
2021/11/04 04:09:20;;;;;;;2.70;1.50;;;6.60;92.70;;;;;;6310027;22;20341;-80
2021/11/04 04:11:45;;;;;;;3.30;1.55;;;6.60;92.70;;;;;;6311502;22;20002;-80
2021/11/04 04:14:11;;;;;;;2.28;1.50;;;6.70;92.70;;;;;;6289158;22;20050;-80
2021/11/04 04:16:37;;;;;;;3.08;1.33;;;6.60;92.70;;;;;;6312446;22;20461;-80
2021/11/04 04:19:03;;;;;;;3.00;1.30;;;6.70;92.70;;;;;;6346873;22;20086;-80
2021/11/04 04:21:28;;;;;;;3.70;1.70;;;6.70;92.70;;;;;;6310601;22;20011;-80
2021/11/04 04:23:54;;;;;;;4.20;1.90;;;6.80;92.70;;;;;;6353145;22;20098;-80
2021/11/04 04:26:20;;;;;;;4.65;1.65;;;6.60;92.60;;;;;;6349231;22;20007;-80
2021/11/04 04:28:45;;;;;;;3.28;1.70;;;6.70;92.70;;;;;;6310440;22;20011;-80
2021/11/04 04:31:12;;;;;;;4.18;1.75;;;6.80;92.70;;;;;;6309901;22;20014;-80
2021/11/04 04:33:38;;;;;;;2.03;1.30;;;6.70;92.70;;;;;;6335407;22;20319;-80
2021/11/04 04:36:04;;;;;;;1.65;0.98;;;6.70;92.70;;;;;;6347777;22;20059;-80
2021/11/04 04:38:30;;;;;;;4.30;2.00;;;6.80;92.70;;;;;;6366866;22;20029;-80
2021/11/04 04:40:56;;;;;;;6.15;2.42;;;6.70;92.70;;;;;;6341217;22;20029;-80
2021/11/04 04:43:21;;;;;;;3.03;1.40;;;6.80;92.70;;;;;;6347578;22;20010;-80
2021/11/04 04:45:47;;;;;;;4.72;2.00;;;6.70;92.60;;;;;;6348325;22;20085;-80
2021/11/04 04:48:13;;;;;;;3.53;1.50;;;6.80;92.60;;;;;;6310757;22;20007;-80
2021/11/04 04:50:40;;;;;;;4.32;2.00;;;6.80;92.70;;;;;;6312734;22;20017;-80
2021/11/04 04:53:07;;;;;;;6.80;2.85;;;6.70;92.70;;;;;;6347537;22;20007;-80
2021/11/04 04:55:33;;;;;;;5.05;2.05;;;6.70;92.70;;;;;;6350492;22;20036;-80
2021/11/04 04:57:59;;;;;;;5.43;2.05;;;6.90;92.70;;;;;;6348459;22;20026;-80
2021/11/04 05:00:25;;;;;;;3.03;1.70;;;6.70;92.70;;;;;;6310364;22;20403;-80
2021/11/04 05:02:51;;;;;;;4.93;1.92;;;6.80;92.70;;;;;;6349259;22;20011;-80
2021/11/04 05:05:17;;;;;;;3.38;1.70;;;6.80;92.70;;;;;;6311857;22;20007;-80
2021/11/04 05:07:42;;;;;;;4.22;1.65;;;6.80;92.70;;;;;;6346913;22;20093;-80
2021/11/04 05:10:09;;;;;;;4.43;2.03;;;6.70;92.60;;;;;;6303075;22;20086;-80
2021/11/04 05:12:36;;;;;;;4.00;1.95;;;6.70;92.70;;;;;;6347110;22;20082;-80
2021/11/04 05:15:03;;;;;;;3.40;1.60;;;6.70;92.70;;;;;;6284108;22;20010;-80
2021/11/04 05:17:29;;;;;;;4.95;1.92;;;6.70;92.70;;;;;;6307890;22;20033;-79
2021/11/04 05:19:55;;;;;;;3.35;1.65;;;6.80;92.70;;;;;;6306561;22;20386;-80
2021/11/04 05:22:20;;;;;;;5.57;2.15;;;6.80;92.70;;;;;;6341026;22;20442;-80
2021/11/04 05:24:46;;;;;;;4.82;1.90;;;6.80;93.00;;;;;;6288292;22;20035;-80
2021/11/04 05:27:12;;;;;;;4.13;1.73;;;6.70;92.60;;;;;;6338274;22;20094;-79
2021/11/04 05:29:38;;;;;;;4.28;1.90;;;6.80;92.70;;;;;;6310983;22;20096;-80
2021/11/04 05:32:07;;;;;;;4.15;1.80;;;6.80;92.70;;;;;;6347647;22;20066;-80
2021/11/04 05:34:36;;;;;;;3.47;1.90;;;6.80;92.70;;;;;;6309290;22;20010;-80
2021/11/04 05:37:03;;;;;;;4.45;1.90;;;6.80;92.70;;;;;;6346715;22;20073;-80
2021/11/04 05:39:29;;;;;;;3.75;1.70;;;6.80;92.60;;;;;;6283681;22;20003;-80
2021/11/04 05:41:54;;;;;;;4.00;1.88;;;6.80;92.60;;;;;;6346702;22;20327;-80
2021/11/04 05:44:20;;;;;;;4.25;2.00;;;6.80;92.70;;;;;;6346564;22;20013;-80
2021/11/04 05:46:46;;;;;;;3.72;1.65;;;6.80;92.60;;;;;;6305188;22;20037;-80
2021/11/04 05:49:12;;;;;;;3.30;1.60;;;6.80;92.60;;;;;;6340349;22;20331;-80
2021/11/04 05:51:37;;;;;;;5.70;2.50;;;6.80;92.70;;;;;;6370075;22;20086;-80
2021/11/04 05:54:03;;;;;;;4.03;1.70;;;6.80;92.70;;;;;;6370215;22;20013;-80
2021/11/04 05:56:29;;;;;;;3.42;1.70;;;6.70;92.60;;;;;;6327182;22;20419;-80
2021/11/04 05:58:55;;;;;;;3.97;2.03;;;6.70;92.70;;;;;;6311612;22;20010;-79
2021/11/04 06:01:21;;;;;;;4.97;1.70;;;6.80;92.70;;;;;;6349490;22;20063;-80
2021/11/04 06:03:46;;;;;;;3.65;1.90;;;6.70;92.70;;;;;;6347834;22;20006;-80
2021/11/04 06:06:12;;;;;;;4.78;2.25;;;6.80;92.70;;;;;;6313290;22;20032;-80
2021/11/04 06:08:38;;;;;;;4.32;1.98;;;6.60;92.70;;;;;;6342410;22;20408;-80
2021/11/04 06:11:04;;;;;;;3.63;1.60;;;6.70;93.00;;;;;;6315765;22;20010;-80
2021/11/04 06:13:30;;;;;;;2.97;1.40;;;6.60;92.80;;;;;;6287901;22;20015;-80
2021/11/04 06:15:55;;;;;;;3.58;1.83;;;6.70;92.80;;;;;;6321648;22;20022;-80
2021/11/04 06:18:21;;;;;;;4.43;1.90;;;6.60;92.80;;;;;;6369736;22;20421;-80
2021/11/04 06:20:47;;;;;;;7.05;2.20;;;6.70;92.80;;;;;;6332568;22;20399;-80
2021/11/04 06:23:13;;;;;;;4.55;2.00;;;6.70;92.70;;;;;;6342304;22;20046;-81
2021/11/04 06:25:38;;;;;;;3.88;2.05;;;6.60;92.70;;;;;;6317200;22;20018;-80
2021/11/04 06:28:04;;;;;;;2.25;1.30;;;6.50;92.70;;;;;;6341751;22;20012;-80
2021/11/04 06:30:30;;;;;;;2.25;1.33;;;6.50;92.80;;;;;;6370430;22;20013;-80
2021/11/04 06:32:56;;;;;;;2.67;1.40;;;6.50;92.90;;;;;;6369621;22;20021;-80
2021/11/04 06:35:22;;;;;;;3.75;1.70;;;6.50;92.90;;;;;;6319601;22;20496;-81
2021/11/04 06:37:48;;;;;;;2.55;1.30;;;6.60;92.90;;;;;;6342141;22;20007;-81
2021/11/04 06:40:13;;;;;;;4.82;1.95;;;6.60;92.90;;;;;;6319235;22;20011;-81
2021/11/04 06:42:39;;;;;;;7.45;2.08;;;6.60;92.90;;;;;;6286170;22;20018;-81
2021/11/04 06:45:06;;;;;;;4.03;1.63;;;6.70;92.90;;;;;;6308784;22;19999;-81
2021/11/04 06:47:42;;;;;;;3.67;1.77;;;6.60;92.80;;;;;;6313282;22;20303;-82
2021/11/04 06:50:10;;;;;;;3.47;1.73;;;6.50;92.80;;;;;;6351509;22;20348;-82
2021/11/04 06:52:43;;;;;;;5.40;1.90;;;6.50;92.80;;;;;;6314485;22;20422;-82
2021/11/04 06:55:11;;;;;;;3.58;1.70;;;6.50;92.90;;;;;;6348643;22;20087;-81
2021/11/04 06:57:41;;;;;;;4.15;1.60;;;6.40;92.90;;;;;;6349890;22;20430;-81
2021/11/04 07:00:09;;;;;;;2.28;1.42;;;6.40;92.80;;;;;;6339308;22;20062;-81
2021/11/04 07:02:38;;;;;;;3.13;1.70;;;6.20;92.80;;;;;;6310737;22;20128;-81
2021/11/04 07:05:07;;;;;;;3.03;1.42;;;6.30;93.00;;;;;;6373288;22;20010;-80
2021/11/04 07:07:51;;;;;;;2.60;1.23;;;6.30;93.00;;;;;;6341860;22;20364;-80
2021/11/04 07:10:19;;;;;;;3.10;1.60;;;6.40;93.00;;;;;;6369956;22;20350;-80
2021/11/04 07:12:48;;;;;;;1.80;1.10;;;6.40;92.90;;;;;;6315386;22;20060;-79
2021/11/04 07:15:15;;;;;;;2.53;1.17;;;6.30;92.90;;;;;;6316040;22;20029;-79
2021/11/04 07:17:43;;;;;;;2.85;1.52;;;6.40;92.90;;;;;;6343043;22;20002;-79
2021/11/04 07:20:10;;;;;;;2.28;1.20;;;6.40;93.20;;;;;;6346418;22;20007;-79
2021/11/04 07:22:45;;;;;;;3.10;1.30;;;6.40;92.90;;;;;;6285212;22;20021;-79
2021/11/04 07:25:13;;;;;;;1.50;0.98;;;6.40;92.90;;;;;;6340072;22;20338;-79
2021/11/04 07:28:04;;;;;;;2.03;1.13;;;6.50;92.90;;;;;;6369393;22;20017;-79
2021/11/04 07:30:30;;;;;;;;;;;6.50;92.90;;;;;;6337803;22;20434;-79
2021/11/04 07:33:01;;;;;;;3.38;1.25;;;6.50;92.90;;;;;;6347960;22;19989;-79
2021/11/04 07:35:29;;;;;;;3.97;1.40;;;6.60;92.80;;;;;;6286784;22;21023;-79
2021/11/04 07:37:56;;;;;;;3.53;1.67;;;6.60;92.80;;;;;;6369261;22;20002;-79
2021/11/04 07:40:25;;;;;;;2.20;1.23;;;6.60;92.80;;;;;;6349132;22;20006;-79
2021/11/04 07:42:51;;;;;;;2.72;1.33;;;6.60;92.70;;;;;;6347962;22;20077;-80
2021/11/04 07:45:18;;;;;;;2.13;1.10;;;6.60;92.70;;;;;;6288033;22;20014;-81
2021/11/04 07:47:46;;;;;;;2.58;1.38;;;6.60;92.70;;;;;;6315666;22;20395;-80
2021/11/04 07:50:15;;;;;;;1.90;1.13;;;6.60;92.70;;;;;;6341826;22;20045;-81
2021/11/04 07:52:42;;;;;;;1.98;1.02;;;6.60;92.70;;;;;;6309877;22;20111;-81
2021/11/04 07:55:09;;;;;;;1.65;1.10;;;6.60;92.70;;;;;;6286487;22;20327;-81
2021/11/04 07:57:37;;;;;;;2.30;1.20;;;6.60;92.80;;;;;;6348171;22;20010;-79
2021/11/04 08:00:07;;;;;;;3.67;1.58;;;6.60;92.80;;;;;;6366895;22;20426;-79
2021/11/04 08:03:05;;;;;;;2.05;1.10;;;6.70;92.90;;;;;;6369902;22;20121;-80
2021/11/04 08:05:31;;;;;;;1.77;1.10;;;6.70;92.80;;;;;;6351591;22;20017;-81
2021/11/04 08:07:56;;;;;;;2.70;1.40;;;6.80;92.80;;;;;;6309752;22;20173;-79
2021/11/04 08:10:22;;;;;;;3.85;1.73;;;6.80;92.70;;;;;;6314852;22;20010;-80
2021/11/04 08:12:48;;;;;;;2.33;1.40;;;6.70;92.60;;;;;;6341406;22;20017;-79
2021/11/04 08:15:15;;;;;;;2.15;1.13;;;6.90;92.80;;;;;;6309173;22;20006;-78
2021/11/04 08:17:41;;;;;;;2.03;1.27;;;6.80;92.70;;;;;;6283934;22;20056;-78
2021/11/04 08:20:08;;;;;;;3.65;1.65;;;6.80;92.70;;;;;;6347499;22;20006;-78
2021/11/04 08:22:35;;;;;;;2.88;1.58;;;6.90;92.70;;;;;;6285910;22;20014;-78
2021/11/04 08:25:02;;;;;;;3.03;1.30;;;7.00;92.70;;;;;;6346924;22;20011;-78
2021/11/04 08:27:28;;;;;;;3.15;1.52;;;7.00;92.70;;;;;;6310613;22;20034;-78
2021/11/04 08:29:54;;;;;;;3.10;1.60;;;7.10;92.60;;;;;;6311511;22;20447;-80
2021/11/04 08:32:20;;;;;;;4.88;1.90;;;7.20;92.50;;;;;;6285675;22;20011;-81
2021/11/04 08:34:46;;;;;;;3.55;1.70;;;7.20;92.50;;;;;;6309115;22;19991;-79
2021/11/04 08:37:13;;;;;;;3.60;1.55;;;7.30;92.40;;;;;;6308232;22;20443;-80
2021/11/04 08:39:42;;;;;;;3.90;2.05;;;7.30;92.40;;;;;;6340573;22;20010;-79
2021/11/04 08:42:08;;;;;;;2.75;1.50;;;7.40;92.40;;;;;;6252430;23;20306;-79
2021/11/04 08:44:36;;;;;;;2.53;1.25;;;7.30;92.40;;;;;;6219176;23;20012;-79
2021/11/04 08:47:03;;;;;;;3.70;1.70;;;7.40;92.40;;;;;;6243714;23;20024;-83
2021/11/04 08:49:30;;;;;;;2.10;1.42;;;7.60;92.40;;;;;;6228127;23;20522;-81
2021/11/04 08:51:55;;;;;;;3.63;1.75;;;7.50;92.30;;;;;;6229899;23;20465;-82
2021/11/04 08:54:22;;;;;;;3.97;1.90;;;7.50;92.30;;;;;;6206826;23;20036;-83
2021/11/04 08:56:49;;;;;;;2.92;1.50;;;7.50;92.40;;;;;;6163534;23;20016;-84
2021/11/04 08:59:15;;;;;;;2.83;1.73;;;7.70;92.40;;;;;;6166132;23;20107;-84
2021/11/04 09:01:41;;;;;;;3.10;1.60;;;7.50;92.40;;;;;;6160734;23;20013;-83
2021/11/04 09:04:08;;;;;;;3.42;1.50;;;7.50;92.40;;;;;;6190149;23;20013;-84
2021/11/04 09:06:34;;;;;;;2.50;1.30;;;7.60;92.40;;;;;;6189155;23;20326;-83
2021/11/04 09:09:02;;;;;;;3.15;1.60;;;7.50;92.40;;;;;;6195780;23;20016;-83
2021/11/04 09:11:29;;;;;;;2.90;1.48;;;7.50;92.50;;;;;;6192895;23;20433;-83
2021/11/04 09:13:55;;;;;;;1.85;1.10;;;7.60;92.50;;;;;;6257849;22;20020;-83
2021/11/04 09:16:21;;;;;;;2.22;1.17;;;7.60;92.50;;;;;;6239882;22;20019;-83
2021/11/04 09:18:47;;;;;;;3.47;1.60;;;7.60;92.40;;;;;;6262758;22;20015;-83
2021/11/04 09:21:12;;;;;;;4.10;1.98;;;7.60;92.40;;;;;;6259989;22;20168;-84
2021/11/04 09:23:38;;;;;;;3.22;1.77;;;7.60;92.40;;;;;;6260626;22;20014;-84
2021/11/04 09:26:04;;;;;;;3.50;1.95;;;7.60;92.50;;;;;;6285984;22;20015;-84
2021/11/04 09:28:30;;;;;;;3.55;1.70;;;7.60;92.50;;;;;;6274109;22;20015;-84
2021/11/04 09:30:56;;;;;;;3.45;1.88;;;7.60;92.50;;;;;;6286943;22;20021;-85
2021/11/04 09:33:22;;;;;;;3.80;1.98;;;7.80;92.50;;;;;;6287414;22;20017;-84
2021/11/04 09:35:49;;;;;;;4.00;2.22;;;7.80;92.50;;;;;;6293523;22;20002;-84
2021/11/04 09:38:15;;;;;;;5.45;2.30;;;7.80;92.40;;;;;;6373794;22;20085;-84
2021/11/04 09:40:41;;;;;;;4.97;2.42;;;7.80;92.40;;;;;;6373928;22;20007;-84
2021/11/04 09:43:07;;;;;;;4.50;2.13;;;7.70;92.30;;;;;;6294943;22;20430;-83
2021/11/04 09:45:33;;;;;;;3.78;2.03;;;7.70;92.40;;;;;;6288926;22;20589;-84
2021/11/04 09:47:59;;;;;;;3.38;2.00;;;7.70;92.40;;;;;;6315843;22;20377;-83
2021/11/04 09:50:25;;;;;;;5.07;2.25;;;7.80;92.50;;;;;;6290496;22;20010;-83
2021/11/04 09:52:54;;;;;;;3.95;2.05;;;7.80;92.40;;;;;;6320920;22;20015;-84
2021/11/04 09:55:28;;;;;;;3.85;1.95;;;7.80;92.40;;;;;;6321778;22;20452;-83
2021/11/04 09:57:57;;;;;;;5.22;2.58;;;7.70;92.40;;;;;;6296087;22;20022;-84
2021/11/04 10:00:33;;;;;;;3.65;1.95;;;7.70;92.40;;;;;;6324775;22;20038;-84
2021/11/04 10:03:05;;;;;;;4.40;2.15;;;7.70;92.40;;;;;;6322508;22;20021;-83
2021/11/04 10:05:42;;;;;;;3.72;2.03;;;7.90;92.40;;;;;;6295815;22;20006;-84
2021/11/04 10:08:09;;;;;;;3.50;1.65;;;7.90;92.40;;;;;;6294779;22;20090;-83
2021/11/04 10:10:36;;;;;;;3.90;1.85;;;7.90;92.30;;;;;;6240182;22;20074;-84
2021/11/04 10:13:05;;;;;;;3.67;1.80;;;8.00;92.30;;;;;;6261883;22;20022;-83
2021/11/04 10:15:34;;;;;;;2.97;1.83;;;7.90;92.30;;;;;;6263289;22;20007;-83
2021/11/04 10:18:12;;;;;;;3.30;1.80;;;7.90;92.40;;;;;;6258947;22;20030;-83
2021/11/04 10:20:39;;;;;;;3.05;1.67;;;8.00;92.40;;;;;;6316317;22;20011;-83
2021/11/04 10:23:09;;;;;;;3.22;2.05;;;8.00;92.40;;;;;;6280164;22;20019;-84
2021/11/04 10:25:35;;;;;;;3.65;2.00;;;8.00;92.20;;;;;;6252282;22;20015;-79
2021/11/04 10:28:20;;;;;;;4.25;2.28;;;8.00;92.20;;;;;;6315842;22;20438;-82
2021/11/04 10:30:46;;;;;;;4.03;2.08;;;8.00;92.30;;;;;;6279969;22;20098;-85
2021/11/04 10:33:24;;;;;;;3.42;1.95;;;8.10;92.40;;;;;;6263690;22;20015;-81
2021/11/04 10:35:59;;;;;;;3.92;1.95;;;8.20;92.30;;;;;;6307549;22;20011;-82
2021/11/04 10:38:41;;;;;;;3.42;1.88;;;8.20;92.20;;;;;;6310573;22;20117;-81
2021/11/04 10:41:10;;;;;;;2.65;1.63;;;8.30;92.20;;;;;;6306031;22;20048;-80
2021/11/04 10:43:37;;;;;;;4.07;2.00;;;8.40;92.10;;;;;;6391731;22;20002;-80
2021/11/04 10:46:06;;;;;;;2.97;1.90;;;8.50;92.10;;;;;;6328271;22;20418;-81
2021/11/04 10:48:35;;;;;;;3.42;1.83;;;8.50;92.10;;;;;;6370517;22;20430;-78
2021/11/04 10:51:00;;;;;;;3.17;1.80;;;8.40;92.00;;;;;;6371334;22;20448;-78
2021/11/04 10:53:27;;;;;;;3.67;1.80;;;8.60;92.00;;;;;;6319735;22;20010;-78
2021/11/04 10:56:12;;;;;;;2.65;1.50;;;8.60;92.00;;;;;;6345788;22;20016;-78
2021/11/04 10:58:38;;;;;;;5.78;2.00;;;8.60;91.90;;;;;;6350709;22;20011;-79
2021/11/04 11:01:04;;;;;;;3.53;2.00;;;8.60;91.90;;;;;;6366133;22;20089;-78
2021/11/04 11:03:30;;;;;;;3.88;2.03;;;8.60;92.00;;;;;;6370408;22;19998;-78
2021/11/04 11:06:05;;;;;;;3.22;1.85;;;8.60;92.00;;;;;;6378465;22;20002;-77
2021/11/04 11:08:32;;;;;;;3.20;1.80;;;8.50;92.00;;;;;;6374250;22;20059;-80
2021/11/04 11:10:57;;;;;;;2.95;1.48;;;8.50;92.10;;;;;;6315742;22;20427;-78
2021/11/04 11:13:24;;;;;;;3.50;2.10;;;8.50;92.00;;;;;;6338603;22;20058;-79
2021/11/04 11:15:55;;;;;;;3.58;1.90;;;8.40;92.10;;;;;;6305554;22;20014;-80
2021/11/04 11:18:23;;;;;;;3.80;1.90;;;8.50;92.10;;;;;;6341525;22;20013;-80
2021/11/04 11:20:50;;;;;;;4.20;2.20;;;8.60;92.10;;;;;;6354301;22;20495;-80
2021/11/04 11:23:20;;;;;;;4.13;2.08;;;8.50;92.10;;;;;;6372257;22;20014;-81
2021/11/04 11:25:49;;;;;;;4.00;2.15;;;8.50;92.10;;;;;;6316304;22;20022;-79
2021/11/04 11:28:15;;;;;;;4.00;2.00;;;8.60;92.10;;;;;;6315725;22;20014;-79
2021/11/04 11:30:41;;;;;;;2.53;1.60;;;8.70;92.10;;;;;;6341587;22;20010;-80
2021/11/04 11:33:23;;;;;;;3.65;1.90;;;8.80;92.00;;;;;;6312950;22;20023;-83
2021/11/04 11:36:18;;;;;;;1.95;1.23;;;8.80;91.90;;;;;;6299630;22;20017;-81
2021/11/04 11:39:07;;;;;;;2.45;1.50;;;8.90;91.90;;;;;;6330472;22;20312;-80
2021/11/04 11:41:53;;;;;;;2.28;1.50;;;8.90;91.90;;;;;;6383620;22;20035;-83
2021/11/04 11:44:59;;;;;;;2.85;1.50;;;9.00;91.80;;;;;;6349551;22;20140;-84
2021/11/04 11:48:12;;;;;;;2.72;1.50;;;9.00;91.80;;;;;;6313442;22;20015;-84
2021/11/04 11:50:53;;;;;;;2.00;1.20;;;9.20;91.80;;;;;;6215791;23;20023;-85
2021/11/04 11:57:19;;;;;;;1.58;1.10;;;9.00;91.80;;;;;;6082513;23;20134;-85
2021/11/04 11:59:54;;;;;;;1.63;1.10;;;9.30;91.90;;;;;;6045967;23;20027;-85
2021/11/04 12:02:45;;;;;;;2.17;1.50;;;9.10;91.80;;;;;;6014799;23;20015;-85
2021/11/04 12:05:40;;;;;;;3.45;1.70;;;9.20;91.90;;;;;;6045412;23;20023;-85
2021/11/04 12:08:31;;;;;;;3.08;1.80;;;9.20;91.80;;;;;;6034136;23;20087;-85
2021/11/04 12:10:59;;;;;;;3.23;1.90;;;9.20;91.70;;;;;;6011678;23;20052;-85
2021/11/04 12:13:42;;;;;;;3.78;2.03;;;9.20;91.70;;;;;;5990008;23;20035;-85
2021/11/04 12:16:11;;;;;;;3.22;1.83;;;9.10;91.70;;;;;;6007703;23;20071;-85
2021/11/04 12:18:54;;;;;;;3.83;2.30;;;9.20;91.80;;;;;;6006721;23;20093;-85
2021/11/04 12:21:27;;;;;;;3.50;2.25;;;9.20;91.70;;;;;;6066449;23;20015;-85
2021/11/04 12:23:57;;;;;;;3.60;2.15;;;9.20;91.70;;;;;;6064870;23;20089;-85
2021/11/04 12:26:34;;;;;;;5.75;3.15;;;9.10;91.60;;;;;;6062610;23;20013;-85
2021/11/04 12:29:01;;;;;;;5.03;2.92;;;9.20;91.70;;;;;;6154663;23;20104;-85
2021/11/04 12:31:28;;;;;;;5.68;2.90;;;9.40;91.70;;;;;;6159417;23;20009;-85
2021/11/04 12:33:56;;;;;;;4.90;2.60;;;9.40;91.50;;;;;;6251644;22;20038;-84
2021/11/04 12:36:37;;;;;;;3.80;2.30;;;9.40;91.50;;;;;;6317790;22;20434;-84
2021/11/04 12:39:18;;;;;;;4.22;2.20;;;9.60;91.60;;;;;;6372163;22;20071;-86
2021/11/04 12:41:47;;;;;;;5.00;2.72;;;9.60;91.50;;;;;;6291915;22;20009;-87
2021/11/04 12:44:13;;;;;;;4.57;2.20;;;9.60;91.50;;;;;;6316906;22;20038;-83
2021/11/04 12:46:47;;;;;;;4.07;2.17;;;9.70;91.40;;;;;;6295519;22;20338;-83
2021/11/04 12:49:14;;;;;;;3.78;2.20;;;9.60;91.40;;;;;;6319721;22;20036;-78
2021/11/04 12:51:47;;;;;;;4.97;2.78;;;9.60;91.40;;;;;;6289578;22;20006;-79
2021/11/04 12:54:15;;;;;;;3.00;1.70;;;9.60;91.40;;;;;;6315969;22;20060;-79
2021/11/04 12:56:45;;;;;;;3.38;1.90;;;9.70;91.40;;;;;;6348659;22;20002;-79
2021/11/04 12:59:13;;;;;;;3.72;2.20;;;9.70;91.40;;;;;;6310164;22;20009;-79
2021/11/04 13:02:07;;;;;;;4.45;2.70;;;9.80;91.40;;;;;;6349494;22;20043;-80
2021/11/04 13:04:38;;;;;;;3.85;2.00;;;9.80;91.40;;;;;;6318806;22;20022;-81
2021/11/04 13:07:05;;;;;;;3.43;2.00;;;9.80;91.50;;;;;;6370248;22;20006;-83
2021/11/04 13:09:43;;;;;;;3.15;1.90;;;9.80;91.40;;;;;;6270976;22;20010;-83